Time,TemperatureF,DewpointF,PressureIn,WindDirection,WindDirectionDegrees,WindSpeedMPH,WindSpeedGustMPH,Humidity,HourlyPrecipIn,Conditions,Clouds,dailyrainin,SoftwareType,DateUTC
2013-10-10 00:01:00,45.1,37.4,30.38,SE,134,10.0,18.0,74,0.00,,,0.00,meteohub,2013-10-10 04:01:00,
2013-10-10 00:02:00,45.1,37.8,30.38,SE,143,11.0,18.0,75,0.00,,,0.00,meteohub,2013-10-10 04:02:00,
2013-10-10 00:03:00,45.0,37.6,30.38,SE,137,13.0,18.0,75,0.00,,,0.00,meteohub,2013-10-10 04:03:00,
2013-10-10 00:04:00,45.0,37.6,30.38,SSE,161,10.0,18.0,75,0.00,,,0.00,meteohub,2013-10-10 04:04:00,
2013-10-10 00:09:00,45.1,37.8,30.38,SE,142,10.0,18.0,75,0.00,,,0.00,meteohub,2013-10-10 04:09:00,
2013-10-10 00:14:00,45.0,37.2,30.38,SE,144,10.0,16.0,74,0.00,,,0.00,meteohub,2013-10-10 04:14:00,
2013-10-10 00:19:00,45.0,37.2,30.37,SE,137,10.0,15.0,74,0.00,,,0.00,meteohub,2013-10-10 04:19:00,
2013-10-10 00:25:00,45.0,37.6,30.38,SSE,153,11.0,14.0,75,0.00,,,0.00,meteohub,2013-10-10 04:25:00,
2013-10-10 00:30:00,45.0,37.6,30.38,SSE,156,7.0,14.0,75,0.00,,,0.00,meteohub,2013-10-10 04:30:00,
2013-10-10 00:35:00,45.1,37.8,30.38,SSE,149,7.0,14.0,75,0.00,,,0.00,meteohub,2013-10-10 04:35:00,
2013-10-10 00:40:00,44.8,37.4,30.38,SE,140,9.0,14.0,75,0.00,,,0.00,meteohub,2013-10-10 04:40:00,
2013-10-10 00:45:00,44.8,37.8,30.38,SE,144,11.0,13.0,76,0.00,,,0.00,meteohub,2013-10-10 04:45:00,
2013-10-10 00:50:00,44.6,37.6,30.38,SSE,148,9.0,12.0,76,0.00,,,0.00,meteohub,2013-10-10 04:50:00,
2013-10-10 00:55:00,44.8,37.4,30.38,SE,137,12.0,15.0,75,0.00,,,0.00,meteohub,2013-10-10 04:55:00,
2013-10-10 01:00:00,44.8,37.4,30.38,SSE,153,12.0,15.0,75,0.00,,,0.00,meteohub,2013-10-10 05:00:00,
2013-10-10 01:06:00,44.8,37.4,30.38,SE,134,11.0,15.0,75,0.00,,,0.00,meteohub,2013-10-10 05:06:00,
2013-10-10 01:11:00,44.8,37.4,30.38,SSE,153,13.0,15.0,75,0.00,,,0.00,meteohub,2013-10-10 05:11:00,
2013-10-10 01:16:00,45.0,37.2,30.38,SE,132,12.0,15.0,74,0.00,,,0.00,meteohub,2013-10-10 05:16:00,
2013-10-10 01:21:00,45.0,37.2,30.38,SSE,147,11.0,15.0,74,0.00,,,0.00,meteohub,2013-10-10 05:21:00,
2013-10-10 01:26:00,45.0,36.9,30.38,SE,145,11.0,15.0,73,0.00,,,0.00,meteohub,2013-10-10 05:26:00,
2013-10-10 01:31:00,45.0,37.2,30.37,SE,136,12.0,15.0,74,0.00,,,0.00,meteohub,2013-10-10 05:31:00,
2013-10-10 01:37:00,45.0,37.2,30.37,SSE,153,14.0,15.0,74,0.00,,,0.00,meteohub,2013-10-10 05:37:00,
2013-10-10 01:42:00,45.0,36.5,30.37,SE,146,8.0,14.0,72,0.00,,,0.00,meteohub,2013-10-10 05:42:00,
2013-10-10 01:47:00,45.1,36.7,30.37,SE,136,13.0,15.0,72,0.00,,,0.00,meteohub,2013-10-10 05:47:00,
2013-10-10 01:52:00,45.1,36.7,30.36,SE,137,13.0,15.0,72,0.00,,,0.00,meteohub,2013-10-10 05:52:00,
2013-10-10 01:57:00,45.1,36.3,30.36,SSE,155,9.0,15.0,71,0.00,,,0.00,meteohub,2013-10-10 05:57:00,
2013-10-10 02:02:00,45.1,36.0,30.36,SE,141,13.0,16.0,70,0.00,,,0.00,meteohub,2013-10-10 06:02:00,
2013-10-10 02:07:00,45.3,36.1,30.36,SE,142,11.0,16.0,70,0.00,,,0.00,meteohub,2013-10-10 06:07:00,
2013-10-10 02:12:00,45.3,35.4,30.36,SSE,147,10.0,14.0,68,0.00,,,0.00,meteohub,2013-10-10 06:12:00,
2013-10-10 02:17:00,45.5,35.6,30.36,SE,142,11.0,14.0,68,0.00,,,0.00,meteohub,2013-10-10 06:17:00,
2013-10-10 02:22:00,45.1,35.2,30.35,SE,146,11.0,14.0,68,0.00,,,0.00,meteohub,2013-10-10 06:22:00,
2013-10-10 02:27:00,45.3,34.7,30.35,SSE,149,14.0,14.0,66,0.00,,,0.00,meteohub,2013-10-10 06:27:00,
2013-10-10 02:32:00,45.7,35.1,30.35,SE,130,10.0,16.0,66,0.00,,,0.00,meteohub,2013-10-10 06:32:00,
2013-10-10 02:37:00,45.7,35.1,30.35,SSE,147,11.0,16.0,66,0.00,,,0.00,meteohub,2013-10-10 06:37:00,
2013-10-10 02:42:00,45.7,35.1,30.35,SE,134,11.0,16.0,66,0.00,,,0.00,meteohub,2013-10-10 06:42:00,
2013-10-10 02:47:00,45.7,35.1,30.35,SSE,153,11.0,15.0,66,0.00,,,0.00,meteohub,2013-10-10 06:47:00,
2013-10-10 02:52:00,45.5,35.2,30.35,SSE,162,9.0,15.0,67,0.00,,,0.00,meteohub,2013-10-10 06:52:00,
2013-10-10 02:57:00,45.0,36.9,30.35,SSE,163,10.0,14.0,73,0.00,,,0.00,meteohub,2013-10-10 06:57:00,
2013-10-10 03:02:00,43.9,37.2,30.35,SE,140,10.0,14.0,77,0.00,,,0.00,meteohub,2013-10-10 07:02:00,
2013-10-10 03:07:00,44.4,34.5,30.35,SE,144,12.0,13.0,68,0.00,,,0.00,meteohub,2013-10-10 07:07:00,
2013-10-10 03:12:00,45.5,32.4,30.35,SE,143,7.0,15.0,60,0.00,,,0.00,meteohub,2013-10-10 07:12:00,
2013-10-10 03:17:00,45.3,35.4,30.35,SE,143,11.0,15.0,68,0.00,,,0.00,meteohub,2013-10-10 07:17:00,
2013-10-10 03:22:00,44.4,36.3,30.34,SE,138,9.0,15.0,73,0.00,,,0.00,meteohub,2013-10-10 07:22:00,
2013-10-10 03:27:00,43.5,36.9,30.34,SE,131,10.0,15.0,77,0.00,,,0.00,meteohub,2013-10-10 07:27:00,
2013-10-10 03:32:00,43.0,37.2,30.34,SE,134,7.0,11.0,80,0.00,,,0.00,meteohub,2013-10-10 07:32:00,
2013-10-10 03:37:00,42.6,37.8,30.34,SE,142,7.0,11.0,83,0.00,,,0.00,meteohub,2013-10-10 07:37:00,
2013-10-10 03:42:00,42.3,37.4,30.34,SE,144,9.0,10.0,83,0.00,,,0.00,meteohub,2013-10-10 07:42:00,
2013-10-10 03:47:00,43.3,34.2,30.33,SSE,160,8.0,10.0,70,0.00,,,0.00,meteohub,2013-10-10 07:47:00,
2013-10-10 03:52:00,44.2,34.7,30.33,SE,133,11.0,13.0,69,0.00,,,0.00,meteohub,2013-10-10 07:52:00,
2013-10-10 03:57:00,44.1,36.7,30.33,SE,132,11.0,13.0,75,0.00,,,0.00,meteohub,2013-10-10 07:57:00,
2013-10-10 04:02:00,43.9,36.5,30.33,SE,143,10.0,13.0,75,0.00,,,0.00,meteohub,2013-10-10 08:02:00,
2013-10-10 04:07:00,44.1,36.0,30.33,SSE,147,9.0,13.0,73,0.00,,,0.00,meteohub,2013-10-10 08:07:00,
2013-10-10 04:12:00,44.8,33.8,30.33,SE,143,6.0,12.0,65,0.00,,,0.00,meteohub,2013-10-10 08:12:00,
2013-10-10 04:17:00,45.1,33.3,30.33,SE,131,9.0,12.0,63,0.00,,,0.00,meteohub,2013-10-10 08:17:00,
2013-10-10 04:22:00,45.1,32.9,30.33,SSE,166,5.0,11.0,62,0.00,,,0.00,meteohub,2013-10-10 08:22:00,
2013-10-10 04:27:00,45.3,32.7,30.33,SE,140,10.0,11.0,61,0.00,,,0.00,meteohub,2013-10-10 08:27:00,
2013-10-10 04:32:00,45.3,32.7,30.33,SE,138,8.0,11.0,61,0.00,,,0.00,meteohub,2013-10-10 08:32:00,
2013-10-10 04:37:00,45.7,31.3,30.33,SE,136,8.0,11.0,57,0.00,,,0.00,meteohub,2013-10-10 08:37:00,
2013-10-10 04:42:00,45.7,32.2,30.33,SE,137,8.0,11.0,59,0.00,,,0.00,meteohub,2013-10-10 08:42:00,
2013-10-10 04:47:00,45.7,33.1,30.33,SE,134,6.0,11.0,61,0.00,,,0.00,meteohub,2013-10-10 08:47:00,
2013-10-10 04:52:00,45.1,34.2,30.33,SE,139,7.0,10.0,65,0.00,,,0.00,meteohub,2013-10-10 08:52:00,
2013-10-10 04:57:00,45.0,33.1,30.33,SSE,148,7.0,10.0,63,0.00,,,0.00,meteohub,2013-10-10 08:57:00,
2013-10-10 05:02:00,45.1,32.9,30.33,SE,142,10.0,10.0,62,0.00,,,0.00,meteohub,2013-10-10 09:02:00,
2013-10-10 05:07:00,45.1,31.3,30.33,SE,133,9.0,10.0,58,0.00,,,0.00,meteohub,2013-10-10 09:07:00,
2013-10-10 05:12:00,45.3,30.6,30.33,SSE,153,9.0,11.0,56,0.00,,,0.00,meteohub,2013-10-10 09:12:00,
2013-10-10 05:17:00,45.7,29.5,30.33,SSE,157,8.0,11.0,53,0.00,,,0.00,meteohub,2013-10-10 09:17:00,
2013-10-10 05:22:00,46.0,27.9,30.33,SSE,163,9.0,12.0,49,0.00,,,0.00,meteohub,2013-10-10 09:22:00,
2013-10-10 05:27:00,46.4,26.2,30.33,SE,146,12.0,12.0,45,0.00,,,0.00,meteohub,2013-10-10 09:27:00,
2013-10-10 05:32:00,46.8,25.5,30.33,SE,144,13.0,13.0,43,0.00,,,0.00,meteohub,2013-10-10 09:32:00,
2013-10-10 05:37:00,46.6,27.0,30.33,SSE,161,12.0,15.0,46,0.00,,,0.00,meteohub,2013-10-10 09:37:00,
2013-10-10 05:42:00,46.2,27.7,30.33,SE,142,11.0,18.0,48,0.00,,,0.00,meteohub,2013-10-10 09:42:00,
2013-10-10 05:47:00,46.2,24.4,30.33,SSE,153,15.0,19.0,42,0.00,,,0.00,meteohub,2013-10-10 09:47:00,
2013-10-10 05:52:00,47.1,22.1,30.33,SE,142,18.0,19.0,37,0.00,,,0.00,meteohub,2013-10-10 09:52:00,
2013-10-10 05:57:00,47.1,18.7,30.33,South,170,13.0,21.0,32,0.00,,,0.00,meteohub,2013-10-10 09:57:00,
2013-10-10 06:02:00,47.5,16.0,30.34,SSE,148,14.0,21.0,28,0.00,,,0.00,meteohub,2013-10-10 10:02:00,
2013-10-10 06:07:00,47.5,19.0,30.34,SE,140,14.0,21.0,32,0.00,,,0.00,meteohub,2013-10-10 10:07:00,
2013-10-10 06:12:00,47.7,17.8,30.34,SE,129,16.0,21.0,30,0.00,,,0.00,meteohub,2013-10-10 10:12:00,
2013-10-10 06:17:00,47.1,20.1,30.34,SSE,166,12.0,20.0,34,0.00,,,0.00,meteohub,2013-10-10 10:17:00,
2013-10-10 06:22:00,47.3,16.7,30.33,SE,128,20.0,20.0,29,0.00,,,0.00,meteohub,2013-10-10 10:22:00,
2013-10-10 06:27:00,47.8,12.7,30.33,SE,140,18.0,22.0,24,0.00,,,0.00,meteohub,2013-10-10 10:27:00,
2013-10-10 06:32:00,47.7,14.4,30.33,SE,140,15.0,22.0,26,0.00,,,0.00,meteohub,2013-10-10 10:32:00,
2013-10-10 06:37:00,47.8,12.7,30.34,SSE,160,15.0,22.0,24,0.00,,,0.00,meteohub,2013-10-10 10:37:00,
2013-10-10 06:42:00,48.0,12.9,30.34,SE,140,18.0,21.0,24,0.00,,,0.00,meteohub,2013-10-10 10:42:00,
2013-10-10 06:47:00,48.4,10.2,30.34,SSE,148,11.0,21.0,21,0.00,,,0.00,meteohub,2013-10-10 10:47:00,
2013-10-10 06:52:00,48.2,10.0,30.34,SE,133,14.0,21.0,21,0.00,,,0.00,meteohub,2013-10-10 10:52:00,
2013-10-10 06:57:00,48.2,10.0,30.34,SSE,150,13.0,21.0,21,0.00,,,0.00,meteohub,2013-10-10 10:57:00,
2013-10-10 07:02:00,47.8,8.6,30.33,SE,140,14.0,20.0,20,0.00,,,0.00,meteohub,2013-10-10 11:02:00,
2013-10-10 07:07:00,47.5,12.6,30.33,SE,132,12.0,20.0,24,0.00,,,0.00,meteohub,2013-10-10 11:07:00,
2013-10-10 07:12:00,47.5,12.6,30.33,SE,140,13.0,20.0,24,0.00,,,0.00,meteohub,2013-10-10 11:12:00,
2013-10-10 07:17:00,47.7,11.7,30.33,SSE,147,15.0,22.0,23,0.00,,,0.00,meteohub,2013-10-10 11:17:00,
2013-10-10 07:22:00,48.2,7.9,30.34,SE,131,16.0,22.0,19,0.00,,,0.00,meteohub,2013-10-10 11:22:00,
2013-10-10 07:27:00,48.6,8.1,30.34,SE,146,10.0,22.0,19,0.00,,,0.00,meteohub,2013-10-10 11:27:00,
2013-10-10 07:32:00,48.7,8.2,30.34,SSE,157,9.0,20.0,19,0.00,,,0.00,meteohub,2013-10-10 11:32:00,
2013-10-10 07:37:00,48.9,8.4,30.34,SE,142,11.0,19.0,19,0.00,,,0.00,meteohub,2013-10-10 11:37:00,
2013-10-10 07:42:00,48.7,7.2,30.34,ESE,114,11.0,18.0,18,0.00,,,0.00,meteohub,2013-10-10 11:42:00,
2013-10-10 07:47:00,49.1,4.8,30.34,SE,142,15.0,16.0,16,0.00,,,0.00,meteohub,2013-10-10 11:47:00,
2013-10-10 07:52:00,49.8,0.9,30.34,SSE,148,12.0,18.0,13,0.00,,,0.00,meteohub,2013-10-10 11:52:00,
2013-10-10 07:57:00,50.4,1.4,30.34,SE,134,18.0,20.0,13,0.00,,,0.00,meteohub,2013-10-10 11:57:00,
2013-10-10 08:02:00,50.5,1.4,30.34,SSE,152,11.0,20.0,13,0.00,,,0.00,meteohub,2013-10-10 12:02:00,
2013-10-10 08:07:00,50.7,0.0,30.34,ESE,123,12.0,19.0,12,0.00,,,0.00,meteohub,2013-10-10 12:07:00,
2013-10-10 08:12:00,51.1,-1.7,30.34,SE,138,18.0,19.0,11,0.00,,,0.00,meteohub,2013-10-10 12:12:00,
2013-10-10 08:17:00,51.1,-1.7,30.34,SE,135,15.0,21.0,11,0.00,,,0.00,meteohub,2013-10-10 12:17:00,
2013-10-10 08:22:00,51.3,-3.5,30.34,SE,133,12.0,21.0,10,0.00,,,0.00,meteohub,2013-10-10 12:22:00,
2013-10-10 08:27:00,51.6,-1.3,30.34,SSE,164,9.0,21.0,11,0.00,,,0.00,meteohub,2013-10-10 12:27:00,
2013-10-10 08:32:00,51.3,0.3,30.34,SSE,147,9.0,21.0,12,0.00,,,0.00,meteohub,2013-10-10 12:32:00,
2013-10-10 08:37:00,51.1,3.6,30.34,SSE,167,11.0,19.0,14,0.00,,,0.00,meteohub,2013-10-10 12:37:00,
2013-10-10 08:42:00,50.7,3.2,30.34,SE,143,11.0,15.0,14,0.00,,,0.00,meteohub,2013-10-10 12:42:00,
2013-10-10 08:47:00,51.3,0.3,30.34,SSE,153,12.0,15.0,12,0.00,,,0.00,meteohub,2013-10-10 12:47:00,
2013-10-10 08:52:00,51.3,-1.5,30.34,ESE,122,13.0,18.0,11,0.00,,,0.00,meteohub,2013-10-10 12:52:00,
2013-10-10 08:57:00,51.3,0.3,30.34,SE,146,14.0,18.0,12,0.00,,,0.00,meteohub,2013-10-10 12:57:00,
2013-10-10 09:02:00,50.7,0.0,30.34,SE,141,11.0,16.0,12,0.00,,,0.00,meteohub,2013-10-10 13:02:00,
2013-10-10 09:07:00,50.5,1.4,30.34,SE,140,12.0,16.0,13,0.00,,,0.00,meteohub,2013-10-10 13:07:00,
2013-10-10 09:12:00,50.2,4.3,30.34,SE,142,12.0,16.0,15,0.00,,,0.00,meteohub,2013-10-10 13:12:00,
2013-10-10 09:17:00,49.8,5.4,30.34,SE,140,11.0,15.0,16,0.00,,,0.00,meteohub,2013-10-10 13:17:00,
2013-10-10 09:22:00,50.2,2.8,30.34,SE,133,12.0,15.0,14,0.00,,,0.00,meteohub,2013-10-10 13:22:00,
2013-10-10 09:27:00,49.6,9.0,30.34,SE,142,8.0,16.0,19,0.00,,,0.00,meteohub,2013-10-10 13:27:00,
2013-10-10 09:32:00,49.6,9.0,30.34,SE,136,12.0,16.0,19,0.00,,,0.00,meteohub,2013-10-10 13:32:00,
2013-10-10 09:37:00,49.3,9.9,30.34,SE,139,6.0,14.0,20,0.00,,,0.00,meteohub,2013-10-10 13:37:00,
2013-10-10 09:42:00,49.3,9.9,30.34,SSE,153,10.0,13.0,20,0.00,,,0.00,meteohub,2013-10-10 13:42:00,
2013-10-10 09:47:00,48.9,8.4,30.34,SE,133,10.0,13.0,19,0.00,,,0.00,meteohub,2013-10-10 13:47:00,
2013-10-10 09:52:00,48.9,10.8,30.34,SE,128,10.0,13.0,21,0.00,,,0.00,meteohub,2013-10-10 13:52:00,
2013-10-10 09:57:00,48.9,8.4,30.34,SSE,152,10.0,13.0,19,0.00,,,0.00,meteohub,2013-10-10 13:57:00,
2013-10-10 10:02:00,49.5,11.1,30.34,SSE,167,4.0,14.0,21,0.00,,,0.00,meteohub,2013-10-10 14:02:00,
2013-10-10 10:07:00,50.4,3.0,30.34,South,188,11.0,14.0,14,0.00,,,0.00,meteohub,2013-10-10 14:07:00,
2013-10-10 10:12:00,50.7,1.6,30.34,SE,146,14.0,14.0,13,0.00,,,0.00,meteohub,2013-10-10 14:12:00,
2013-10-10 10:17:00,51.4,5.4,30.34,SE,141,12.0,15.0,15,0.00,,,0.00,meteohub,2013-10-10 14:17:00,
2013-10-10 10:22:00,52.0,4.3,30.34,SSE,162,14.0,16.0,14,0.00,,,0.00,meteohub,2013-10-10 14:22:00,
2013-10-10 10:27:00,52.2,-2.7,30.34,SSE,148,12.0,18.0,10,0.00,,,0.00,meteohub,2013-10-10 14:27:00,
2013-10-10 10:32:00,52.2,-0.8,30.34,SSE,157,8.0,18.0,11,0.00,,,0.00,meteohub,2013-10-10 14:32:00,
2013-10-10 10:37:00,51.4,5.4,30.34,SSE,155,9.0,18.0,15,0.00,,,0.00,meteohub,2013-10-10 14:37:00,
2013-10-10 10:42:00,51.6,2.3,30.33,SE,129,12.0,18.0,13,0.00,,,0.00,meteohub,2013-10-10 14:42:00,
2013-10-10 10:47:00,52.0,0.9,30.33,SE,128,11.0,18.0,12,0.00,,,0.00,meteohub,2013-10-10 14:47:00,
2013-10-10 10:52:00,52.2,2.8,30.33,SE,142,14.0,16.0,13,0.00,,,0.00,meteohub,2013-10-10 14:52:00,
2013-10-10 10:57:00,53.2,1.9,30.33,SE,130,10.0,14.0,12,0.00,,,0.00,meteohub,2013-10-10 14:57:00,
2013-10-10 11:02:00,54.0,2.5,30.32,SE,135,8.0,15.0,12,0.00,,,0.00,meteohub,2013-10-10 15:02:00,
2013-10-10 11:07:00,54.3,0.9,30.33,SE,142,9.0,16.0,11,0.00,,,0.00,meteohub,2013-10-10 15:07:00,
2013-10-10 11:12:00,54.3,-1.1,30.33,SSE,150,9.0,16.0,10,0.00,,,0.00,meteohub,2013-10-10 15:12:00,
2013-10-10 11:17:00,54.1,7.5,30.33,SE,145,10.0,15.0,15,0.00,,,0.00,meteohub,2013-10-10 15:17:00,
2013-10-10 11:22:00,54.0,4.3,30.32,SSE,155,11.0,14.0,13,0.00,,,0.00,meteohub,2013-10-10 15:22:00,
2013-10-10 11:27:00,54.0,5.9,30.32,SSE,163,7.0,14.0,14,0.00,,,0.00,meteohub,2013-10-10 15:27:00,
2013-10-10 11:32:00,53.8,7.2,30.32,SE,141,8.0,14.0,15,0.00,,,0.00,meteohub,2013-10-10 15:32:00,
2013-10-10 11:37:00,53.2,5.2,30.32,SE,135,10.0,14.0,14,0.00,,,0.00,meteohub,2013-10-10 15:37:00,
2013-10-10 11:42:00,53.2,5.2,30.32,SE,134,8.0,12.0,14,0.00,,,0.00,meteohub,2013-10-10 15:42:00,
2013-10-10 11:47:00,52.5,7.5,30.32,SE,144,7.0,12.0,16,0.00,,,0.00,meteohub,2013-10-10 15:47:00,
2013-10-10 11:52:00,52.3,7.5,30.32,SSE,155,7.0,12.0,16,0.00,,,0.00,meteohub,2013-10-10 15:52:00,
2013-10-10 11:57:00,52.3,7.5,30.33,SE,130,5.0,12.0,16,0.00,,,0.00,meteohub,2013-10-10 15:57:00,
2013-10-10 12:02:00,52.2,9.9,30.33,SSE,152,7.0,12.0,18,0.00,,,0.00,meteohub,2013-10-10 16:02:00,
2013-10-10 12:07:00,52.3,8.8,30.33,SE,144,6.0,12.0,17,0.00,,,0.00,meteohub,2013-10-10 16:07:00,
2013-10-10 12:12:00,52.3,13.5,30.32,SE,144,6.0,12.0,21,0.00,,,0.00,meteohub,2013-10-10 16:12:00,
2013-10-10 12:17:00,52.3,13.5,30.32,SE,134,6.0,12.0,21,0.00,,,0.00,meteohub,2013-10-10 16:17:00,
2013-10-10 12:22:00,52.3,15.6,30.32,SE,129,5.0,8.0,23,0.00,,,0.00,meteohub,2013-10-10 16:22:00,
2013-10-10 12:27:00,52.2,13.5,30.32,East,89,3.0,7.0,21,0.00,,,0.00,meteohub,2013-10-10 16:27:00,
2013-10-10 12:32:00,52.0,20.7,30.32,SSE,149,5.0,7.0,29,0.00,,,0.00,meteohub,2013-10-10 16:32:00,
2013-10-10 12:37:00,51.6,17.8,30.31,ESE,121,2.0,9.0,26,0.00,,,0.00,meteohub,2013-10-10 16:37:00,
2013-10-10 12:42:00,52.2,16.5,30.31,ESE,119,7.0,9.0,24,0.00,,,0.00,meteohub,2013-10-10 16:42:00,
2013-10-10 12:47:00,52.3,15.6,30.31,SE,132,6.0,9.0,23,0.00,,,0.00,meteohub,2013-10-10 16:47:00,
2013-10-10 12:52:00,52.3,18.5,30.31,SE,145,0.0,8.0,26,0.00,,,0.00,meteohub,2013-10-10 16:52:00,
2013-10-10 12:57:00,52.2,16.5,30.30,SSE,150,5.0,8.0,24,0.00,,,0.00,meteohub,2013-10-10 16:57:00,
2013-10-10 13:02:00,52.2,16.5,30.30,SE,146,8.0,10.0,24,0.00,,,0.00,meteohub,2013-10-10 17:02:00,
2013-10-10 13:07:00,52.3,12.4,30.30,SE,141,10.0,11.0,20,0.00,,,0.00,meteohub,2013-10-10 17:07:00,
2013-10-10 13:12:00,52.3,11.3,30.30,SE,144,9.0,11.0,19,0.00,,,0.00,meteohub,2013-10-10 17:12:00,
2013-10-10 13:17:00,52.5,11.5,30.30,SSE,157,5.0,12.0,19,0.00,,,0.00,meteohub,2013-10-10 17:17:00,
2013-10-10 13:22:00,52.7,11.7,30.30,SSE,150,8.0,12.0,19,0.00,,,0.00,meteohub,2013-10-10 17:22:00,
2013-10-10 13:27:00,52.9,12.9,30.30,SSE,155,6.0,12.0,20,0.00,,,0.00,meteohub,2013-10-10 17:27:00,
2013-10-10 13:32:00,53.1,14.2,30.30,SE,133,9.0,12.0,21,0.00,,,0.00,meteohub,2013-10-10 17:32:00,
2013-10-10 13:37:00,53.1,10.6,30.30,SE,133,7.0,11.0,18,0.00,,,0.00,meteohub,2013-10-10 17:37:00,
2013-10-10 13:42:00,52.9,14.0,30.30,SE,135,9.0,10.0,21,0.00,,,0.00,meteohub,2013-10-10 17:42:00,
2013-10-10 13:47:00,52.9,16.2,30.30,SSE,164,5.0,11.0,23,0.00,,,0.00,meteohub,2013-10-10 17:47:00,
2013-10-10 13:52:00,52.5,17.8,30.30,SE,134,6.0,11.0,25,0.00,,,0.00,meteohub,2013-10-10 17:52:00,
2013-10-10 13:57:00,52.3,11.3,30.29,SSE,157,8.0,11.0,19,0.00,,,0.00,meteohub,2013-10-10 17:57:00,
2013-10-10 14:02:00,52.5,11.5,30.30,SE,136,11.0,12.0,19,0.00,,,0.00,meteohub,2013-10-10 18:02:00,
2013-10-10 14:07:00,52.3,10.0,30.29,SE,133,11.0,14.0,18,0.00,,,0.00,meteohub,2013-10-10 18:07:00,
2013-10-10 14:12:00,52.3,10.0,30.29,SE,144,9.0,14.0,18,0.00,,,0.00,meteohub,2013-10-10 18:12:00,
2013-10-10 14:17:00,52.3,13.5,30.29,SE,140,8.0,14.0,21,0.00,,,0.00,meteohub,2013-10-10 18:17:00,
2013-10-10 14:22:00,52.2,11.1,30.30,SSE,153,9.0,13.0,19,0.00,,,0.00,meteohub,2013-10-10 18:22:00,
2013-10-10 14:27:00,52.0,13.3,30.29,SSE,155,13.0,14.0,21,0.00,,,0.00,meteohub,2013-10-10 18:27:00,
2013-10-10 14:32:00,51.8,12.0,30.29,SSE,153,13.0,14.0,20,0.00,,,0.00,meteohub,2013-10-10 18:32:00,
2013-10-10 14:37:00,51.8,13.1,30.29,SSE,157,9.0,18.0,21,0.00,,,0.00,meteohub,2013-10-10 18:37:00,
2013-10-10 14:42:00,51.8,12.0,30.29,SSE,148,12.0,18.0,20,0.00,,,0.00,meteohub,2013-10-10 18:42:00,
2013-10-10 14:47:00,51.6,12.9,30.29,SSE,165,13.0,18.0,21,0.00,,,0.00,meteohub,2013-10-10 18:47:00,
2013-10-10 14:52:00,52.0,8.4,30.29,SE,146,8.0,15.0,17,0.00,,,0.00,meteohub,2013-10-10 18:52:00,
2013-10-10 14:57:00,52.3,6.1,30.29,SE,129,9.0,15.0,15,0.00,,,0.00,meteohub,2013-10-10 18:57:00,
2013-10-10 15:02:00,52.5,10.2,30.28,SSE,149,7.0,14.0,18,0.00,,,0.00,meteohub,2013-10-10 19:02:00,
2013-10-10 15:07:00,52.3,4.5,30.28,SSE,153,3.0,14.0,14,0.00,,,0.00,meteohub,2013-10-10 19:07:00,
2013-10-10 15:12:00,53.1,8.1,30.28,SE,142,11.0,14.0,16,0.00,,,0.00,meteohub,2013-10-10 19:12:00,
2013-10-10 15:17:00,52.9,15.1,30.28,SE,146,9.0,14.0,22,0.00,,,0.00,meteohub,2013-10-10 19:17:00,
2013-10-10 15:22:00,51.6,15.1,30.27,SE,141,11.0,12.0,23,0.00,,,0.00,meteohub,2013-10-10 19:22:00,
2013-10-10 15:27:00,51.4,15.8,30.27,SSE,161,10.0,13.0,24,0.00,,,0.00,meteohub,2013-10-10 19:27:00,
2013-10-10 15:32:00,51.6,15.1,30.27,SSE,154,10.0,13.0,23,0.00,,,0.00,meteohub,2013-10-10 19:32:00,
2013-10-10 15:37:00,51.3,17.6,30.27,SE,132,6.0,15.0,26,0.00,,,0.00,meteohub,2013-10-10 19:37:00,
2013-10-10 15:42:00,51.1,18.3,30.27,ESE,123,8.0,15.0,27,0.00,,,0.00,meteohub,2013-10-10 19:42:00,
2013-10-10 15:47:00,50.9,18.9,30.27,SE,144,11.0,15.0,28,0.00,,,0.00,meteohub,2013-10-10 19:47:00,
2013-10-10 15:52:00,51.6,9.5,30.27,SE,142,12.0,13.0,18,0.00,,,0.00,meteohub,2013-10-10 19:52:00,
2013-10-10 15:57:00,53.1,3.6,30.27,SE,127,10.0,14.0,13,0.00,,,0.00,meteohub,2013-10-10 19:57:00,
2013-10-10 16:02:00,54.0,0.7,30.27,SE,133,8.0,14.0,11,0.00,,,0.00,meteohub,2013-10-10 20:02:00,
2013-10-10 16:07:00,54.1,0.7,30.27,SE,129,6.0,14.0,11,0.00,,,0.00,meteohub,2013-10-10 20:07:00,
2013-10-10 16:12:00,54.0,4.3,30.27,SE,140,5.0,14.0,13,0.00,,,0.00,meteohub,2013-10-10 20:12:00,
2013-10-10 16:17:00,53.6,8.4,30.27,SE,146,5.0,13.0,16,0.00,,,0.00,meteohub,2013-10-10 20:17:00,
2013-10-10 16:22:00,53.1,10.6,30.27,SE,143,5.0,11.0,18,0.00,,,0.00,meteohub,2013-10-10 20:22:00,
2013-10-10 16:27:00,52.3,18.5,30.27,SSE,148,8.0,11.0,26,0.00,,,0.00,meteohub,2013-10-10 20:27:00,
2013-10-10 16:31:00,51.1,19.0,30.26,SE,141,8.0,11.0,28,0.00,,,0.00,meteohub,2013-10-10 20:31:00,
2013-10-10 16:37:00,50.5,18.7,30.27,SSE,147,7.0,11.0,28,0.00,,,0.00,meteohub,2013-10-10 20:37:00,
2013-10-10 16:42:00,50.5,18.7,30.27,SE,144,5.0,11.0,28,0.00,,,0.00,meteohub,2013-10-10 20:42:00,
2013-10-10 16:47:00,50.4,17.6,30.26,SE,138,6.0,9.0,27,0.00,,,0.00,meteohub,2013-10-10 20:47:00,
2013-10-10 16:52:00,50.4,18.5,30.27,SSE,155,5.0,9.0,28,0.00,,,0.00,meteohub,2013-10-10 20:52:00,
2013-10-10 16:57:00,50.9,16.3,30.26,SSE,155,4.0,12.0,25,0.00,,,0.00,meteohub,2013-10-10 20:57:00,
2013-10-10 17:02:00,51.4,12.7,30.26,SSE,148,7.0,12.0,21,0.00,,,0.00,meteohub,2013-10-10 21:02:00,
2013-10-10 17:07:00,52.0,14.4,30.25,SSE,148,3.0,12.0,22,0.00,,,0.00,meteohub,2013-10-10 21:07:00,
2013-10-10 17:12:00,52.3,14.5,30.25,SSE,148,0.0,10.0,22,0.00,,,0.00,meteohub,2013-10-10 21:12:00,
2013-10-10 17:17:00,52.2,17.4,30.25,NNW,341,5.0,9.0,25,0.00,,,0.00,meteohub,2013-10-10 21:17:00,
2013-10-10 17:22:00,51.4,21.7,30.25,NNW,337,0.0,7.0,31,0.00,,,0.00,meteohub,2013-10-10 21:22:00,
2013-10-10 17:27:00,51.3,16.7,30.25,North,355,0.0,7.0,25,0.00,,,0.00,meteohub,2013-10-10 21:27:00,
2013-10-10 17:32:00,51.4,15.8,30.26,SE,135,5.0,7.0,24,0.00,,,0.00,meteohub,2013-10-10 21:32:00,
2013-10-10 17:37:00,52.2,13.5,30.25,SSE,160,3.0,10.0,21,0.00,,,0.00,meteohub,2013-10-10 21:37:00,
2013-10-10 17:42:00,52.5,12.6,30.25,SSE,153,0.0,10.0,20,0.00,,,0.00,meteohub,2013-10-10 21:42:00,
2013-10-10 17:47:00,52.3,17.6,30.26,SE,138,1.0,10.0,25,0.00,,,0.00,meteohub,2013-10-10 21:47:00,
2013-10-10 17:52:00,51.8,13.1,30.25,SE,136,6.0,9.0,21,0.00,,,0.00,meteohub,2013-10-10 21:52:00,
2013-10-10 17:57:00,52.0,13.3,30.25,SE,130,1.0,9.0,21,0.00,,,0.00,meteohub,2013-10-10 21:57:00,
2013-10-10 18:02:00,52.3,12.4,30.25,ESE,113,1.0,9.0,20,0.00,,,0.00,meteohub,2013-10-10 22:02:00,
2013-10-10 18:07:00,52.3,13.5,30.25,ESE,117,0.0,9.0,21,0.00,,,0.00,meteohub,2013-10-10 22:07:00,
2013-10-10 18:12:00,52.2,12.2,30.25,East,92,3.0,5.0,20,0.00,,,0.00,meteohub,2013-10-10 22:12:00,
2013-10-10 18:17:00,52.2,14.4,30.25,ENE,67,0.0,4.0,22,0.00,,,0.00,meteohub,2013-10-10 22:17:00,
2013-10-10 18:22:00,51.8,18.0,30.25,ENE,67,3.0,4.0,26,0.00,,,0.00,meteohub,2013-10-10 22:22:00,
2013-10-10 18:27:00,51.6,14.0,30.25,ENE,64,1.0,4.0,22,0.00,,,0.00,meteohub,2013-10-10 22:27:00,
2013-10-10 18:32:00,51.6,16.9,30.25,East,96,2.0,4.0,25,0.00,,,0.00,meteohub,2013-10-10 22:32:00,
2013-10-10 18:37:00,51.4,14.9,30.25,NE,38,2.0,5.0,23,0.00,,,0.00,meteohub,2013-10-10 22:37:00,
2013-10-10 18:42:00,51.4,17.6,30.25,NE,49,2.0,5.0,26,0.00,,,0.00,meteohub,2013-10-10 22:42:00,
2013-10-10 18:47:00,51.4,16.7,30.25,SSE,148,0.0,8.0,25,0.00,,,0.00,meteohub,2013-10-10 22:47:00,
2013-10-10 18:52:00,51.3,20.1,30.26,ENE,63,2.0,9.0,29,0.00,,,0.00,meteohub,2013-10-10 22:52:00,
2013-10-10 18:57:00,51.4,14.9,30.25,NE,34,3.0,9.0,23,0.00,,,0.00,meteohub,2013-10-10 22:57:00,
2013-10-10 19:03:00,51.3,18.3,30.26,ESE,118,2.0,6.0,27,0.00,,,0.00,meteohub,2013-10-10 23:03:00,
2013-10-10 19:08:00,50.9,18.1,30.26,ESE,107,1.0,6.0,27,0.00,,,0.00,meteohub,2013-10-10 23:08:00,
2013-10-10 19:13:00,50.9,17.2,30.27,East,83,0.0,7.0,26,0.00,,,0.00,meteohub,2013-10-10 23:13:00,
2013-10-10 19:18:00,50.7,18.9,30.27,East,92,0.0,7.0,28,0.00,,,0.00,meteohub,2013-10-10 23:18:00,
2013-10-10 19:23:00,50.7,19.6,30.27,East,98,3.0,5.0,29,0.00,,,0.00,meteohub,2013-10-10 23:23:00,
2013-10-10 19:28:00,50.5,20.3,30.27,SE,129,1.0,4.0,30,0.00,,,0.00,meteohub,2013-10-10 23:28:00,
2013-10-10 19:33:00,50.4,20.1,30.27,SE,128,0.0,6.0,30,0.00,,,0.00,meteohub,2013-10-10 23:33:00,
2013-10-10 19:38:00,50.4,20.8,30.27,SE,128,0.0,6.0,31,0.00,,,0.00,meteohub,2013-10-10 23:38:00,
2013-10-10 19:44:00,50.2,22.8,30.27,SE,130,0.0,6.0,34,0.00,,,0.00,meteohub,2013-10-10 23:44:00,
2013-10-10 19:49:00,49.6,20.3,30.26,ENE,63,0.0,6.0,31,0.00,,,0.00,meteohub,2013-10-10 23:49:00,
2013-10-10 19:54:00,49.6,20.3,30.26,East,94,1.0,6.0,31,0.00,,,0.00,meteohub,2013-10-10 23:54:00,
2013-10-10 19:59:00,49.6,19.4,30.25,ESE,103,0.0,5.0,30,0.00,,,0.00,meteohub,2013-10-10 23:59:00,
2013-10-10 20:04:00,49.6,18.7,30.25,ESE,111,1.0,4.0,29,0.00,,,0.00,meteohub,2013-10-11 00:04:00,
2013-10-10 20:09:00,49.8,17.2,30.25,SE,136,0.0,5.0,27,0.00,,,0.00,meteohub,2013-10-11 00:09:00,
2013-10-10 20:14:00,50.2,13.8,30.25,ENE,59,2.0,8.0,23,0.00,,,0.00,meteohub,2013-10-11 00:14:00,
2013-10-10 20:20:00,50.4,16.7,30.25,SE,144,5.0,8.0,26,0.00,,,0.00,meteohub,2013-10-11 00:20:00,
2013-10-10 20:25:00,50.5,14.2,30.25,SSE,149,2.0,8.0,23,0.00,,,0.00,meteohub,2013-10-11 00:25:00,
2013-10-10 20:30:00,51.3,7.9,30.25,ENE,73,4.0,8.0,17,0.00,,,0.00,meteohub,2013-10-11 00:30:00,
2013-10-10 20:35:00,52.2,8.6,30.25,NE,35,2.0,7.0,17,0.00,,,0.00,meteohub,2013-10-11 00:35:00,
2013-10-10 20:40:00,52.2,7.3,30.25,ENE,63,2.0,8.0,16,0.00,,,0.00,meteohub,2013-10-11 00:40:00,
2013-10-10 20:45:00,52.2,9.9,30.25,East,86,4.0,8.0,18,0.00,,,0.00,meteohub,2013-10-11 00:45:00,
2013-10-10 20:50:00,51.6,9.5,30.25,ESE,119,3.0,8.0,18,0.00,,,0.00,meteohub,2013-10-11 00:50:00,
2013-10-10 20:56:00,51.6,9.5,30.25,SE,141,4.0,11.0,18,0.00,,,0.00,meteohub,2013-10-11 00:56:00,
2013-10-10 21:01:00,51.4,9.3,30.25,SE,130,6.0,11.0,18,0.00,,,0.00,meteohub,2013-10-11 01:01:00,
2013-10-10 21:06:00,51.3,11.5,30.25,SE,132,3.0,11.0,20,0.00,,,0.00,meteohub,2013-10-11 01:06:00,
2013-10-10 21:11:00,51.3,9.1,30.25,SE,143,9.0,9.0,18,0.00,,,0.00,meteohub,2013-10-11 01:11:00,
2013-10-10 21:16:00,51.3,10.4,30.25,SSE,150,7.0,10.0,19,0.00,,,0.00,meteohub,2013-10-11 01:16:00,
2013-10-10 21:21:00,51.1,9.0,30.25,SE,126,11.0,12.0,18,0.00,,,0.00,meteohub,2013-10-11 01:21:00,
2013-10-10 21:26:00,51.1,6.4,30.25,SE,135,9.0,13.0,16,0.00,,,0.00,meteohub,2013-10-11 01:26:00,
2013-10-10 21:32:00,51.1,7.7,30.26,SE,144,8.0,13.0,17,0.00,,,0.00,meteohub,2013-10-11 01:32:00,
2013-10-10 21:37:00,50.9,4.8,30.26,SE,135,13.0,13.0,15,0.00,,,0.00,meteohub,2013-10-11 01:37:00,
2013-10-10 21:42:00,51.1,6.4,30.25,SE,128,10.0,14.0,16,0.00,,,0.00,meteohub,2013-10-11 01:42:00,
2013-10-10 21:47:00,51.3,5.2,30.25,SSE,155,10.0,14.0,15,0.00,,,0.00,meteohub,2013-10-11 01:47:00,
2013-10-10 21:52:00,51.4,3.7,30.26,SE,145,11.0,14.0,14,0.00,,,0.00,meteohub,2013-10-11 01:52:00,
2013-10-10 21:57:00,51.4,5.4,30.25,SSE,161,11.0,14.0,15,0.00,,,0.00,meteohub,2013-10-11 01:57:00,
2013-10-10 22:02:00,51.4,6.8,30.25,SSE,160,10.0,14.0,16,0.00,,,0.00,meteohub,2013-10-11 02:02:00,
2013-10-10 22:07:00,51.3,5.2,30.25,SSE,155,11.0,15.0,15,0.00,,,0.00,meteohub,2013-10-11 02:07:00,
2013-10-10 22:12:00,51.3,5.2,30.25,SSE,151,8.0,15.0,15,0.00,,,0.00,meteohub,2013-10-11 02:12:00,
2013-10-10 22:17:00,51.1,7.7,30.25,SE,146,7.0,15.0,17,0.00,,,0.00,meteohub,2013-10-11 02:17:00,
2013-10-10 22:22:00,50.7,7.5,30.25,SE,145,8.0,13.0,17,0.00,,,0.00,meteohub,2013-10-11 02:22:00,
2013-10-10 22:27:00,50.9,6.3,30.25,SE,146,10.0,13.0,16,0.00,,,0.00,meteohub,2013-10-11 02:27:00,
2013-10-10 22:32:00,51.1,6.4,30.24,SE,146,9.0,12.0,16,0.00,,,0.00,meteohub,2013-10-11 02:32:00,
2013-10-10 22:37:00,51.3,3.7,30.24,SSE,157,8.0,13.0,14,0.00,,,0.00,meteohub,2013-10-11 02:37:00,
2013-10-10 22:42:00,51.3,3.7,30.24,SSE,148,11.0,13.0,14,0.00,,,0.00,meteohub,2013-10-11 02:42:00,
2013-10-10 22:47:00,51.3,3.7,30.24,SE,144,10.0,13.0,14,0.00,,,0.00,meteohub,2013-10-11 02:47:00,
2013-10-10 22:52:00,51.3,3.7,30.24,SSE,150,11.0,12.0,14,0.00,,,0.00,meteohub,2013-10-11 02:52:00,
2013-10-10 22:57:00,51.3,3.7,30.24,SE,146,10.0,12.0,14,0.00,,,0.00,meteohub,2013-10-11 02:57:00,
2013-10-10 23:02:00,51.3,3.7,30.23,SE,140,12.0,12.0,14,0.00,,,0.00,meteohub,2013-10-11 03:02:00,
2013-10-10 23:07:00,51.4,0.5,30.23,SE,146,10.0,12.0,12,0.00,,,0.00,meteohub,2013-10-11 03:07:00,
2013-10-10 23:12:00,51.6,0.7,30.24,SE,141,12.0,12.0,12,0.00,,,0.00,meteohub,2013-10-11 03:12:00,
2013-10-10 23:17:00,52.0,-0.9,30.24,SSE,155,7.0,13.0,11,0.00,,,0.00,meteohub,2013-10-11 03:17:00,
2013-10-10 23:22:00,51.8,0.7,30.24,SE,142,14.0,14.0,12,0.00,,,0.00,meteohub,2013-10-11 03:22:00,
2013-10-10 23:27:00,51.4,2.1,30.23,SSE,151,13.0,15.0,13,0.00,,,0.00,meteohub,2013-10-11 03:27:00,
2013-10-10 23:32:00,51.3,3.7,30.23,SE,134,14.0,15.0,14,0.00,,,0.00,meteohub,2013-10-11 03:32:00,
2013-10-10 23:37:00,51.1,3.6,30.22,SE,138,11.0,16.0,14,0.00,,,0.00,meteohub,2013-10-11 03:37:00,
2013-10-10 23:42:00,51.1,1.9,30.22,SE,137,16.0,16.0,13,0.00,,,0.00,meteohub,2013-10-11 03:42:00,
2013-10-10 23:47:00,51.1,3.6,30.22,SE,134,15.0,19.0,14,0.00,,,0.00,meteohub,2013-10-11 03:47:00,
2013-10-10 23:52:00,51.3,2.1,30.22,SE,125,14.0,19.0,13,0.00,,,0.00,meteohub,2013-10-11 03:52:00,
2013-10-10 23:57:00,51.3,2.1,30.22,SE,144,13.0,19.0,13,0.00,,,0.00,meteohub,2013-10-11 03:57:00,